createdAt,value
2019-04-04T00:06:05.863Z,51.85
2019-04-04T00:19:34.365Z,51.58
2019-04-04T00:23:40.825Z,52.07
2019-04-04T00:26:10.926Z,51.48
2019-04-04T00:32:11.452Z,50.00
2019-04-04T00:35:47.187Z,50.91
2019-04-04T00:40:58.268Z,51.38
2019-04-04T00:45:51.401Z,50.59
2019-04-04T00:54:45.011Z,49.87
2019-04-04T00:58:05.244Z,50.75
2019-04-04T01:01:26.861Z,48.91
2019-04-04T01:04:26.458Z,51.26
2019-04-04T01:07:49.286Z,50.19
2019-04-04T01:17:49.421Z,48.76
2019-04-04T01:24:17.732Z,49.72
2019-04-04T01:34:47.042Z,49.62
2019-04-04T01:36:17.411Z,50.96
2019-04-04T01:43:02.023Z,50.27
2019-04-04T01:45:53.313Z,50.35
2019-04-04T01:52:01.450Z,52.19
2019-04-04T01:54:59.026Z,51.00
2019-04-04T01:57:54.819Z,51.26
2019-04-04T02:07:23.820Z,52.01
2019-04-04T02:10:24.471Z,52.50
2019-04-04T02:13:28.838Z,52.75
2019-04-04T02:16:22.736Z,53.38
2019-04-04T02:19:11.065Z,52.60
2019-04-04T02:22:04.157Z,52.72
2019-04-04T02:25:08.146Z,52.02
2019-04-04T02:27:51.048Z,52.56
2019-04-04T02:33:53.456Z,52.77
2019-04-04T02:36:52.241Z,52.69
2019-04-04T02:40:12.501Z,52.90
2019-04-04T02:43:16.869Z,53.45
2019-04-04T02:49:01.475Z,53.34
2019-04-04T02:55:30.160Z,53.68
2019-04-04T02:58:22.325Z,53.35
2019-04-04T03:01:25.549Z,54.21
2019-04-04T03:04:46.903Z,53.93
2019-04-04T03:16:43.828Z,56.07
2019-04-04T03:19:40.738Z,54.83
2019-04-04T03:22:28.366Z,54.75
2019-04-04T03:28:38.236Z,54.19
2019-04-04T03:31:28.137Z,54.21
2019-04-04T03:34:22.910Z,53.63
2019-04-04T03:46:37.462Z,53.21
2019-04-04T03:49:11.004Z,53.53
2019-04-04T03:52:17.335Z,52.03
2019-04-04T03:55:44.721Z,52.50
2019-04-04T04:03:46.670Z,50.50
2019-04-04T04:09:23.522Z,48.96
2019-04-04T04:11:46.169Z,49.15
2019-04-04T04:15:05.624Z,49.00
2019-04-04T04:18:57.087Z,48.11
2019-04-04T04:41:20.302Z,47.26
2019-04-04T04:44:39.178Z,47.11
2019-04-04T04:47:42.163Z,46.78
2019-04-04T04:54:20.483Z,46.16
2019-04-04T05:07:47.658Z,45.39
2019-04-04T05:14:12.333Z,44.66
2019-04-04T05:20:04.001Z,43.55
2019-04-04T05:26:48.770Z,43.53
2019-04-04T05:30:16.721Z,42.27
2019-04-04T05:39:52.123Z,42.32
2019-04-04T05:46:21.987Z,40.92
2019-04-04T05:53:29.954Z,40.07
2019-04-04T05:56:40.691Z,39.23
2019-04-04T06:03:04.767Z,38.06
2019-04-04T06:05:46.661Z,37.56
2019-04-04T06:08:31.103Z,37.77
2019-04-04T06:11:13.183Z,37.99
2019-04-04T06:13:57.021Z,37.87
2019-04-04T06:16:51.683Z,38.35
2019-04-04T06:19:36.569Z,38.64
2019-04-04T06:22:19.111Z,37.88
2019-04-04T06:25:37.675Z,37.71
2019-04-04T06:28:38.033Z,36.58
2019-04-04T06:31:12.218Z,36.46
2019-04-04T06:34:11.762Z,36.76
2019-04-04T06:36:43.157Z,35.56
2019-04-04T06:39:31.517Z,35.09
2019-04-04T06:46:08.137Z,35.57
2019-04-04T06:48:51.909Z,35.32
2019-04-04T06:51:24.889Z,34.78
2019-04-04T06:54:02.359Z,34.53
2019-04-04T06:56:34.534Z,34.48
2019-04-04T06:59:05.094Z,35.47
2019-04-04T07:01:59.999Z,34.64
2019-04-04T07:04:39.234Z,33.22
2019-04-04T07:07:13.137Z,33.99
2019-04-04T07:10:13.341Z,34.00
2019-04-04T07:13:21.528Z,33.13
2019-04-04T07:16:34.118Z,32.16
2019-04-04T07:19:37.453Z,31.97
2019-04-04T07:23:15.181Z,30.75
2019-04-04T07:28:30.908Z,29.58
2019-04-04T07:31:26.227Z,30.49
2019-04-04T07:36:42.232Z,31.35
2019-04-04T07:39:14.337Z,30.92
2019-04-04T07:41:45.135Z,31.58
2019-04-04T07:44:15.526Z,30.90
2019-04-04T07:46:46.124Z,31.03
2019-04-04T07:49:16.508Z,31.14
2019-04-04T07:51:47.022Z,30.68
2019-04-04T07:54:17.466Z,29.54
2019-04-04T07:56:48.840Z,28.61
2019-04-04T07:59:20.701Z,28.44
2019-04-04T08:01:51.685Z,27.14
2019-04-04T08:04:22.614Z,26.73
2019-04-04T08:06:54.402Z,26.52
2019-04-04T08:09:28.035Z,26.33
2019-04-04T08:11:58.546Z,25.39
2019-04-04T08:14:42.991Z,25.39
2019-04-04T08:17:11.941Z,24.28
2019-04-04T08:19:42.815Z,24.92
2019-04-04T08:25:06.052Z,23.76
2019-04-04T08:27:49.875Z,24.08
2019-04-04T08:30:20.418Z,24.50
2019-04-04T08:32:50.962Z,25.58
2019-04-04T08:35:21.500Z,24.84
2019-04-04T08:37:55.064Z,24.87
2019-04-04T08:40:25.487Z,25.65
2019-04-04T08:42:55.974Z,24.05
2019-04-04T08:45:26.400Z,25.12
2019-04-04T08:47:56.894Z,25.05
2019-04-04T08:50:28.187Z,26.12
2019-04-04T08:52:58.693Z,25.14
2019-04-04T08:55:29.546Z,25.70
2019-04-04T08:58:00.005Z,24.03
2019-04-04T09:00:30.424Z,24.03
2019-04-04T09:03:00.883Z,25.13
2019-04-04T09:05:33.710Z,24.04
2019-04-04T09:08:04.207Z,23.78
2019-04-04T09:10:34.606Z,24.01
2019-04-04T09:13:06.091Z,24.35
2019-04-04T09:15:39.327Z,23.73
2019-04-04T09:18:09.815Z,23.80
2019-04-04T09:20:42.067Z,24.42
2019-04-04T09:23:15.426Z,24.54
2019-04-04T09:25:47.742Z,24.58
2019-04-04T09:28:21.657Z,24.45
2019-04-04T09:30:55.028Z,25.00
2019-04-04T09:33:25.654Z,24.20
2019-04-04T09:35:58.754Z,24.14
2019-04-04T09:38:34.011Z,24.62
2019-04-04T09:41:04.616Z,24.08
2019-04-04T09:43:35.087Z,24.08
2019-04-04T09:46:05.752Z,24.13
2019-04-04T09:48:39.599Z,25.43
2019-04-04T09:51:10.437Z,25.01
2019-04-04T09:53:53.030Z,25.23
2019-04-04T09:56:13.056Z,24.48
2019-04-04T09:58:44.363Z,24.96
2019-04-04T10:01:14.919Z,23.10
2019-04-04T10:03:45.417Z,23.18
2019-04-04T10:06:15.854Z,22.81
2019-04-04T10:08:46.660Z,23.92
2019-04-04T10:11:17.532Z,22.88
2019-04-04T10:13:48.120Z,23.39
2019-04-04T10:16:18.567Z,23.09
2019-04-04T10:18:48.995Z,22.90
2019-04-04T10:21:19.435Z,22.20
2019-04-04T10:23:49.913Z,22.92
2019-04-04T10:26:20.604Z,23.17
2019-04-04T10:28:51.052Z,22.22
2019-04-04T10:31:22.003Z,22.23
2019-04-04T10:33:52.559Z,22.14
2019-04-04T10:36:22.985Z,22.60
2019-04-04T10:38:53.459Z,22.88
2019-04-04T10:41:23.865Z,22.11
2019-04-04T10:43:54.151Z,21.82
2019-04-04T10:46:27.795Z,22.02
2019-04-04T10:48:59.732Z,21.99
2019-04-04T10:51:30.128Z,22.16
2019-04-04T10:54:03.412Z,22.69
2019-04-04T10:56:33.989Z,22.06
2019-04-04T10:59:05.406Z,21.61
2019-04-04T11:01:41.818Z,20.19
2019-04-04T11:04:12.513Z,19.66
2019-04-04T11:06:43.198Z,19.85
2019-04-04T11:09:14.528Z,19.66
2019-04-04T11:11:46.752Z,20.94
2019-04-04T11:14:20.495Z,19.98
2019-04-04T11:16:51.813Z,19.27
2019-04-04T11:19:30.879Z,19.65
2019-04-04T11:21:56.486Z,19.67
2019-04-04T11:24:27.169Z,20.29
2019-04-04T11:26:57.910Z,18.53
2019-04-04T11:29:28.432Z,18.67
2019-04-04T11:32:00.968Z,19.21
2019-04-04T11:34:31.715Z,18.73
2019-04-04T11:37:02.223Z,20.18
2019-04-04T11:39:33.937Z,18.21
2019-04-04T11:42:04.552Z,18.16
2019-04-04T11:44:35.006Z,17.96
2019-04-04T11:47:05.467Z,19.27
2019-04-04T11:49:38.654Z,19.43
2019-04-04T11:52:09.186Z,17.77
2019-04-04T11:54:41.249Z,17.96
2019-04-04T11:57:12.643Z,17.67
2019-04-04T11:59:43.092Z,18.39
2019-04-04T12:02:14.230Z,18.56
2019-04-04T12:04:44.766Z,18.56
2019-04-04T12:07:15.194Z,19.10
2019-04-04T12:09:45.674Z,18.12
2019-04-04T12:12:16.095Z,17.91
2019-04-04T12:14:46.575Z,16.30
2019-04-04T12:17:17.018Z,16.08
2019-04-04T12:19:47.462Z,17.58
2019-04-04T12:22:18.060Z,17.42
2019-04-04T12:24:48.666Z,17.38
2019-04-04T12:27:20.147Z,17.21
2019-04-04T12:29:52.063Z,17.56
2019-04-04T12:32:23.062Z,18.22
2019-04-04T12:34:59.480Z,18.58
2019-04-04T12:37:29.961Z,18.68
2019-04-04T12:40:02.734Z,18.87
2019-04-04T12:42:33.174Z,18.36
2019-04-04T12:45:06.210Z,18.45
2019-04-04T12:47:36.635Z,18.68
2019-04-04T12:50:08.538Z,19.10
2019-04-04T12:52:38.956Z,20.04
2019-04-04T12:55:12.514Z,20.65
2019-04-04T12:57:42.939Z,18.85
2019-04-04T13:00:14.956Z,19.13
2019-04-04T13:02:47.093Z,18.68
2019-04-04T13:05:18.695Z,18.75
2019-04-04T13:07:50.127Z,19.12
2019-04-04T13:10:32.330Z,18.47
2019-04-04T13:12:53.821Z,17.64
2019-04-04T13:15:29.394Z,18.54
2019-04-04T13:18:02.751Z,17.96
2019-04-04T13:20:35.224Z,18.14
2019-04-04T13:23:06.653Z,17.44
2019-04-04T13:25:40.184Z,17.85
2019-04-04T13:28:10.647Z,17.64
2019-04-04T13:30:52.913Z,17.56
2019-04-04T13:33:28.380Z,17.93
2019-04-04T13:36:01.240Z,19.08
2019-04-04T13:38:32.117Z,18.94
2019-04-04T13:41:02.548Z,19.06
2019-04-04T13:43:32.938Z,20.08
2019-04-04T13:46:03.445Z,19.46
2019-04-04T13:48:34.747Z,19.21
2019-04-04T13:51:07.477Z,19.11
2019-04-04T13:53:37.876Z,19.60
2019-04-04T13:56:08.364Z,19.46
2019-04-04T13:58:38.777Z,19.01
2019-04-04T14:01:09.231Z,19.51
2019-04-04T14:03:39.610Z,19.51
2019-04-04T14:06:11.743Z,20.06
2019-04-04T14:08:45.684Z,19.67
2019-04-04T14:11:15.639Z,20.73
2019-04-04T14:13:48.717Z,21.21
2019-04-04T14:16:19.530Z,21.62
2019-04-04T14:18:49.998Z,22.42
2019-04-04T14:21:20.566Z,23.16
2019-04-04T14:23:52.872Z,23.48
2019-04-04T14:26:24.004Z,23.59
2019-04-04T14:28:54.553Z,24.63
2019-04-04T14:31:25.247Z,25.19
2019-04-04T14:33:55.745Z,24.87
2019-04-04T14:36:26.506Z,24.03
2019-04-04T14:38:57.040Z,24.16
2019-04-04T14:41:27.517Z,24.73
2019-04-04T14:43:59.931Z,24.46
2019-04-04T14:46:30.971Z,25.16
2019-04-04T14:49:02.285Z,24.66
2019-04-04T14:51:32.825Z,24.70
2019-04-04T14:54:03.735Z,24.48
2019-04-04T14:56:34.672Z,24.23
2019-04-04T14:59:09.440Z,24.58
2019-04-04T15:01:42.587Z,24.76
2019-04-04T15:04:13.018Z,24.76
2019-04-04T15:06:45.914Z,25.26
2019-04-04T15:09:16.324Z,24.84
2019-04-04T15:11:49.191Z,24.84
2019-04-04T15:14:19.837Z,24.74
2019-04-04T15:16:51.985Z,24.71
2019-04-04T15:19:25.331Z,24.77
2019-04-04T15:21:55.804Z,25.49
2019-04-04T15:24:26.361Z,24.99
2019-04-04T15:26:56.880Z,24.85
2019-04-04T15:29:27.493Z,25.08
2019-04-04T15:31:58.083Z,25.78
2019-04-04T15:34:28.589Z,25.23
2019-04-04T15:36:59.563Z,24.55
2019-04-04T15:39:30.008Z,24.70
2019-04-04T15:42:00.536Z,25.37
2019-04-04T15:44:30.954Z,25.21
2019-04-04T15:47:01.589Z,25.46
2019-04-04T15:49:32.044Z,25.28
2019-04-04T15:52:02.509Z,25.41
2019-04-04T15:54:33.149Z,26.86
2019-04-04T15:57:03.821Z,26.02
2019-04-04T15:59:34.318Z,25.37
2019-04-04T16:02:04.775Z,26.78
2019-04-04T16:04:35.179Z,26.09
2019-04-04T16:07:06.509Z,26.29
2019-04-04T16:09:36.988Z,26.54
2019-04-04T16:12:07.589Z,27.13
2019-04-04T16:14:38.092Z,27.54
2019-04-04T16:17:09.934Z,26.88
2019-04-04T16:19:40.451Z,27.22
2019-04-04T16:22:11.193Z,28.28
2019-04-04T16:24:41.630Z,28.45
2019-04-04T16:27:12.075Z,29.03
2019-04-04T16:29:44.118Z,28.80
2019-04-04T16:32:14.753Z,28.62
2019-04-04T16:34:45.174Z,29.33
2019-04-04T16:37:15.702Z,29.28
2019-04-04T16:39:46.132Z,29.27
2019-04-04T16:42:16.616Z,29.11
2019-04-04T16:44:47.040Z,28.75
2019-04-04T16:47:17.436Z,28.75
2019-04-04T16:49:47.796Z,29.12
2019-04-04T16:52:18.282Z,29.60
2019-04-04T16:54:48.718Z,29.42
2019-04-04T16:57:19.184Z,29.81
2019-04-04T16:59:49.628Z,30.05
2019-04-04T17:02:20.141Z,30.59
2019-04-04T17:04:50.573Z,30.15
2019-04-04T17:07:21.064Z,30.35
2019-04-04T17:09:51.512Z,30.14
2019-04-04T17:12:22.104Z,30.57
2019-04-04T17:14:52.579Z,30.83
2019-04-04T17:17:23.106Z,31.21
2019-04-04T17:19:53.587Z,31.15
2019-04-04T17:22:24.104Z,32.00
2019-04-04T17:24:54.586Z,32.21
2019-04-04T17:27:25.085Z,32.57
2019-04-04T17:29:55.798Z,32.96
2019-04-04T17:32:26.314Z,32.44
2019-04-04T17:34:57.100Z,33.37
2019-04-04T17:37:27.840Z,33.73
2019-04-04T17:39:58.283Z,34.37
2019-04-04T17:42:31.955Z,34.72
2019-04-04T17:45:02.303Z,35.62
2019-04-04T17:47:33.160Z,35.01
2019-04-04T17:50:05.274Z,35.52
2019-04-04T17:52:35.834Z,35.90
2019-04-04T17:55:08.686Z,36.53
2019-04-04T17:57:39.183Z,37.13
2019-04-04T18:00:12.036Z,37.16
2019-04-04T18:02:42.509Z,37.11
2019-04-04T18:05:13.173Z,37.75
2019-04-04T18:07:43.691Z,37.68
2019-04-04T18:10:14.539Z,38.40
2019-04-04T18:12:45.027Z,38.64
2019-04-04T18:15:15.692Z,38.29
2019-04-04T18:17:46.209Z,39.90
2019-04-04T18:20:18.176Z,41.26
2019-04-04T18:22:48.659Z,40.91
2019-04-04T18:25:19.104Z,41.62
2019-04-04T18:27:49.627Z,41.83
2019-04-04T18:30:22.482Z,41.65
2019-04-04T18:32:53.358Z,42.54
2019-04-04T18:35:24.364Z,41.44
2019-04-04T18:37:55.408Z,41.66
2019-04-04T18:40:25.951Z,41.54
2019-04-04T18:42:56.482Z,42.88
2019-04-04T18:45:29.073Z,42.76
2019-04-04T18:47:59.572Z,42.31
2019-04-04T18:50:30.046Z,42.77
2019-04-04T18:53:00.482Z,43.77
2019-04-04T18:55:30.962Z,44.44
2019-04-04T18:58:01.499Z,45.37
2019-04-04T19:00:31.960Z,44.84
2019-04-04T19:03:02.604Z,44.26
2019-04-04T19:05:33.076Z,44.91
2019-04-04T19:08:03.574Z,46.26
2019-04-04T19:10:34.029Z,47.10
2019-04-04T19:13:05.817Z,48.18
2019-04-04T19:15:36.448Z,47.26
2019-04-04T19:18:06.942Z,46.92
2019-04-04T19:20:37.370Z,46.92
2019-04-04T19:23:07.834Z,47.04
2019-04-04T19:25:38.280Z,47.08
2019-04-04T19:28:08.758Z,48.42
2019-04-04T19:30:39.363Z,48.85
2019-04-04T19:33:09.849Z,48.74
2019-04-04T19:35:40.303Z,48.10
2019-04-04T19:38:10.865Z,48.44
2019-04-04T19:40:41.311Z,48.79
2019-04-04T19:43:17.994Z,49.06
2019-04-04T19:45:43.930Z,49.19
2019-04-04T19:48:14.427Z,49.32
2019-04-04T19:50:44.869Z,49.06
2019-04-04T19:53:15.452Z,48.33
2019-04-04T19:55:45.885Z,46.55
2019-04-04T19:58:16.371Z,46.67
2019-04-04T20:00:46.920Z,46.76
2019-04-04T20:03:17.348Z,46.72
2019-04-04T20:05:47.793Z,46.65
2019-04-04T20:08:18.248Z,46.12
2019-04-04T20:10:48.673Z,46.61
2019-04-04T20:13:30.288Z,46.16
2019-04-04T20:15:51.238Z,46.26
2019-04-04T20:18:21.713Z,46.09
2019-04-04T20:20:52.134Z,47.16
2019-04-04T20:23:22.626Z,46.76
2019-04-04T20:25:53.079Z,46.59
2019-04-04T20:28:23.586Z,46.56
2019-04-04T20:30:54.022Z,46.88
2019-04-04T20:33:24.568Z,47.61
2019-04-04T20:35:55.003Z,47.31
2019-04-04T20:38:25.747Z,47.29
2019-04-04T20:40:56.187Z,46.95
2019-04-04T20:43:26.631Z,46.91
2019-04-04T20:45:57.028Z,48.07
2019-04-04T20:48:27.482Z,47.89
2019-04-04T20:50:58.171Z,48.48
2019-04-04T20:53:28.582Z,49.22
2019-04-04T20:55:58.999Z,49.53
2019-04-04T20:58:29.458Z,50.14
2019-04-04T21:00:59.891Z,49.97
2019-04-04T21:03:30.347Z,50.85
2019-04-04T21:06:00.750Z,52.24
2019-04-04T21:08:31.223Z,52.69
2019-04-04T21:11:01.640Z,52.34
2019-04-04T21:13:32.119Z,51.70
2019-04-04T21:16:02.555Z,51.35
2019-04-04T21:18:33.051Z,52.95
2019-04-04T21:21:03.485Z,52.69
2019-04-04T21:23:33.994Z,52.71
2019-04-04T21:26:04.612Z,53.45
2019-04-04T21:28:35.073Z,53.88
2019-04-04T21:31:05.485Z,53.18
2019-04-04T21:33:35.951Z,54.35
2019-04-04T21:36:06.391Z,54.22
2019-04-04T21:38:36.930Z,54.28
2019-04-04T21:41:07.368Z,55.61
2019-04-04T21:43:37.838Z,55.58
2019-04-04T21:46:08.251Z,55.95
2019-04-04T21:48:38.740Z,56.73
2019-04-04T21:51:09.185Z,56.71
2019-04-04T21:53:39.653Z,56.95
2019-04-04T21:56:10.105Z,55.88
2019-04-04T21:58:40.581Z,56.26
2019-04-04T22:01:11.298Z,55.96
2019-04-04T22:03:41.776Z,56.95
2019-04-04T22:06:12.242Z,57.00
2019-04-04T22:08:42.734Z,56.81
2019-04-04T22:11:13.193Z,55.60
2019-04-04T22:13:43.692Z,55.68
2019-04-04T22:16:14.098Z,54.70
2019-04-04T22:18:44.584Z,54.64
2019-04-04T22:21:15.017Z,54.98
2019-04-04T22:23:45.481Z,55.12
2019-04-04T22:26:15.908Z,56.62
2019-04-04T22:28:46.365Z,56.07
2019-04-04T22:31:16.777Z,57.02
2019-04-04T22:33:47.269Z,56.65
2019-04-04T22:36:17.689Z,56.24
2019-04-04T22:38:49.044Z,55.93
2019-04-04T22:41:19.440Z,55.90
2019-04-04T22:44:02.697Z,56.42
2019-04-04T22:46:22.021Z,57.38
2019-04-04T22:48:52.485Z,56.37
2019-04-04T22:51:22.915Z,55.56
2019-04-04T22:53:53.363Z,56.36
2019-04-04T22:56:23.796Z,56.93
2019-04-04T22:58:54.253Z,57.06
2019-04-04T23:01:24.684Z,56.10
2019-04-04T23:03:55.166Z,57.64
2019-04-04T23:06:25.595Z,56.73
2019-04-04T23:08:56.066Z,56.54
2019-04-04T23:11:26.471Z,57.27
2019-04-04T23:17:06.568Z,58.23
2019-04-04T23:19:36.984Z,59.31
2019-04-04T23:22:07.438Z,59.71
2019-04-04T23:24:37.889Z,60.38
2019-04-04T23:27:08.351Z,60.05
2019-04-04T23:29:38.772Z,60.17
2019-04-04T23:32:09.263Z,59.64
2019-04-04T23:34:39.695Z,59.34
2019-04-04T23:37:10.121Z,59.90
2019-04-04T23:39:40.680Z,61.38
2019-04-04T23:42:11.117Z,61.07
2019-04-04T23:44:41.609Z,59.96
2019-04-04T23:47:12.017Z,59.32
2019-04-04T23:49:42.489Z,59.04
2019-04-04T23:52:12.936Z,59.51
2019-04-04T23:54:43.421Z,60.97
2019-04-04T23:57:13.835Z,60.29
2019-04-04T23:59:44.305Z,59.67
